Date,TemperatureHighF,TemperatureAvgF,TemperatureLowF,DewpointHighF,DewpointAvgF,DewpointLowF,HumidityHigh,HumidityAvg,HumidityLow,PressureMaxIn,PressureMinIn,WindSpeedMaxMPH,WindSpeedAvgMPH,GustSpeedMaxMPH,PrecipitationSumIn
2013-1-1,35.3,32.6,24.1,34.5,31.1,21.4,97,94,86,30.17,29.96,9,1,10,0.06
2013-1-2,34.3,25.4,18.8,25.8,21.6,16.7,94,86,62,30.21,30.13,5,0,6,0.02
2013-1-3,42.9,31.0,23.3,30.7,25.1,21.3,94,80,54,30.35,30.18,8,1,8,0.00
2013-1-4,45.2,33.0,25.1,29.2,24.4,22.0,93,72,41,30.40,30.25,11,1,12,0.00
2013-1-5,48.6,38.1,28.4,32.7,29.1,24.3,87,71,51,30.26,30.09,12,2,12,0.00
2013-1-6,47.5,37.1,27.9,31.8,26.8,20.2,90,68,44,30.29,30.10,17,2,17,0.00
2013-1-7,48.9,33.5,22.5,29.1,24.7,19.6,94,72,43,30.32,30.08,10,1,10,0.00
2013-1-8,56.7,42.1,26.6,42.3,32.4,23.4,94,70,48,30.13,30.00,9,1,9,0.01
2013-1-9,56.8,49.5,44.1,48.0,43.3,39.9,95,80,61,30.27,30.12,15,1,15,0.03
2013-1-10,54.3,47.9,43.2,53.8,46.6,40.1,98,95,81,30.20,29.71,16,2,19,0.12
2013-1-11,63.6,52.5,42.5,50.7,46.4,41.3,97,81,57,29.83,29.70,13,3,13,0.08
2013-1-12,57.3,48.3,32.7,53.2,45.5,31.0,96,90,76,29.80,29.61,19,2,19,1.67
2013-1-13,34.6,28.4,19.2,32.4,24.7,16.5,95,86,67,30.28,29.77,19,5,19,0.01
2013-1-14,30.7,21.9,15.4,18.2,15.1,12.7,90,76,53,30.43,30.27,11,1,11,0.00
2013-1-15,27.9,22.8,17.2,23.4,18.0,13.2,87,82,72,30.29,30.05,10,1,11,0.00
2013-1-16,43.4,29.6,19.3,24.8,20.8,17.3,94,72,39,30.14,30.02,7,1,7,0.01
2013-1-17,46.7,36.5,29.2,35.2,26.9,22.6,79,68,54,30.41,30.08,17,2,17,0.00
2013-1-18,56.7,39.1,23.1,30.7,26.2,20.8,94,63,33,30.44,30.13,10,2,10,0.00
2013-1-19,65.3,49.8,34.0,37.2,32.1,24.5,70,52,31,30.13,29.95,15,2,16,0.00
2013-1-20,55.0,44.0,34.7,35.5,29.1,20.4,79,58,33,30.18,30.04,9,1,9,0.00
2013-1-21,40.6,30.3,22.4,20.7,15.0,11.4,71,54,35,30.30,30.13,12,2,14,0.00
2013-1-22,35.2,27.0,19.0,19.5,15.3,11.0,77,62,45,30.32,30.20,11,2,11,0.00
2013-1-23,58.9,37.4,20.7,42.0,28.6,16.9,88,72,48,30.24,30.05,9,1,9,0.00
2013-1-24,40.8,32.1,27.7,29.6,17.8,12.0,72,55,45,30.33,30.10,14,4,16,0.00
2013-1-25,47.4,36.2,27.9,33.7,28.3,19.6,89,74,57,30.17,30.04,11,1,11,0.00
2013-1-26,55.5,43.5,32.8,33.1,28.3,24.8,81,58,31,30.23,30.11,12,2,12,0.00
2013-1-27,55.5,46.2,41.5,53.8,42.1,32.1,97,86,65,30.13,29.89,9,2,10,0.03
2013-1-28,73.3,65.3,55.1,62.3,59.5,53.6,95,82,63,29.90,29.75,16,4,16,0.00
2013-1-29,65.8,61.4,51.8,62.1,58.4,50.9,97,90,81,29.75,29.30,22,4,22,1.29
2013-1-30,51.7,38.8,28.2,50.9,33.9,21.8,97,83,66,29.93,29.32,24,5,27,0.10
2013-1-31,51.7,31.9,20.7,29.7,21.5,9.0,90,67,40,30.32,29.91,25,4,25,0.00
2013-2-1,36.4,24.0,12.0,16.5,9.0,4.2,76,54,29,30.43,30.17,15,2,15,0.00
2013-2-2,54.6,37.8,22.8,32.8,25.9,16.2,83,63,42,30.19,30.05,14,2,15,0.00
2013-2-3,54.9,44.2,37.6,31.5,27.1,21.4,73,53,29,30.14,29.93,18,3,19,0.00
2013-2-4,55.6,45.3,39.2,47.3,37.6,24.1,95,76,47,29.93,29.73,15,2,15,0.40
2013-2-5,65.9,47.1,32.2,42.9,35.3,30.2,94,67,30,29.97,29.82,13,1,13,0.00
2013-2-6,55.4,45.4,33.8,39.0,34.7,29.1,84,67,48,30.09,29.91,13,3,16,0.00
2013-2-7,63.4,50.8,40.6,55.0,45.8,36.5,95,83,65,29.92,29.74,15,2,16,0.30
2013-2-8,51.7,41.5,34.8,41.8,33.9,30.2,90,75,50,30.19,29.91,18,3,18,0.00
2013-2-9,40.0,35.1,30.7,36.2,31.5,28.0,93,87,75,30.20,29.87,14,3,15,0.01
2013-2-10,66.7,50.9,38.0,56.8,39.0,27.6,98,70,28,29.89,29.54,20,4,20,0.61
2013-2-11,55.0,42.6,36.0,30.9,27.7,25.6,69,56,34,30.07,29.88,19,2,19,0.00
2013-2-12,47.2,39.3,30.2,35.0,28.9,24.5,93,67,48,30.04,29.78,10,1,11,0.17
2013-2-13,53.7,41.0,33.5,40.0,34.2,31.0,96,79,44,29.90,29.80,13,2,17,0.17
2013-2-14,60.7,48.3,37.4,36.0,32.3,28.7,78,55,37,30.00,29.83,15,3,15,0.00
2013-2-15,44.9,38.7,27.5,32.0,23.1,12.9,74,54,32,30.18,29.99,16,3,16,0.00
2013-2-16,40.6,32.5,25.3,20.7,17.0,13.1,80,54,35,30.22,30.08,14,1,18,0.00
2013-2-17,61.2,44.8,30.1,35.2,25.9,18.1,74,49,29,30.08,29.80,13,2,13,0.00
2013-2-18,54.0,49.0,36.8,50.7,41.7,28.8,92,76,57,29.93,29.52,30,6,30,0.22
2013-2-19,47.7,36.2,27.6,29.1,19.9,12.6,78,54,27,30.20,29.92,19,4,24,0.00
2013-2-20,34.9,29.9,26.0,16.0,13.2,10.2,57,49,38,30.26,30.09,14,2,14,0.00
2013-2-21,31.5,29.5,26.9,30.5,26.7,15.6,96,89,55,30.10,29.69,23,3,23,0.08
2013-2-22,36.1,31.2,25.0,31.6,28.3,22.6,97,89,74,30.01,29.75,8,0,8,0.20
2013-2-23,43.2,31.5,20.9,29.1,23.8,18.7,92,75,48,30.02,29.88,8,1,8,0.02
2013-2-24,54.1,39.3,25.3,34.6,29.6,23.3,95,71,44,30.00,29.82,15,3,15,0.00
2013-2-25,54.4,41.3,34.4,39.3,32.9,27.3,94,74,42,29.83,29.24,25,4,25,1.06
2013-2-26,38.9,36.0,32.7,37.6,33.5,30.4,96,91,83,29.73,29.19,21,4,21,0.21
2013-2-27,42.6,36.5,34.2,32.7,29.3,26.1,84,75,59,29.92,29.69,22,5,22,0.00
2013-2-28,41.1,34.4,29.8,29.4,26.5,24.0,84,73,59,30.07,29.90,21,5,21,0.00
2013-3-1,33.9,31.0,27.2,28.6,25.2,22.8,87,79,71,30.13,30.03,18,4,18,0.00
2013-3-2,38.9,30.2,24.0,25.6,20.2,17.2,88,67,46,30.21,30.11,18,3,18,0.01
2013-3-3,51.9,35.9,20.7,28.2,22.7,17.2,90,62,34,30.15,29.83,11,2,11,0.00
2013-3-4,54.8,45.3,36.7,46.8,38.2,27.4,95,76,67,29.83,29.57,12,2,14,0.00
2013-3-5,46.2,40.3,31.7,43.3,29.1,20.9,95,67,38,30.14,29.64,30,8,31,0.06
2013-3-6,48.4,37.0,28.2,26.5,22.7,19.6,71,57,37,30.29,30.14,18,3,23,0.00
2013-3-7,57.6,43.5,32.0,33.6,30.0,24.8,81,61,38,30.25,30.11,12,2,13,0.00
2013-3-8,57.2,45.1,31.6,35.9,33.0,28.8,91,65,43,30.24,30.03,15,3,15,0.00
2013-3-9,71.0,58.2,46.0,54.2,41.8,31.2,82,56,25,30.03,29.63,20,5,22,0.01
2013-3-10,60.9,50.3,37.6,55.3,47.2,32.8,97,89,72,29.75,29.50,17,4,22,1.41
2013-3-11,44.7,36.3,30.6,33.0,28.4,25.6,92,74,53,29.94,29.74,16,4,18,0.00
2013-3-12,57.9,42.8,30.3,30.0,26.7,22.3,85,56,30,30.19,29.93,20,3,20,0.00
2013-3-13,52.7,40.5,30.0,25.4,22.8,18.3,74,51,27,30.34,30.18,14,3,15,0.00
2013-3-14,72.6,51.2,31.2,40.6,30.7,22.6,76,49,27,30.29,29.99,16,2,18,0.00
2013-3-15,83.1,67.7,52.8,48.6,43.9,39.7,71,45,23,29.99,29.64,19,3,19,0.00
2013-3-16,77.7,65.2,50.3,50.0,45.0,38.4,65,49,35,29.76,29.61,16,3,19,0.00
2013-3-17,50.3,41.5,38.3,39.4,37.9,35.8,97,88,65,29.84,29.59,16,3,16,0.20
2013-3-18,53.5,44.8,40.1,45.0,39.2,34.2,97,82,51,29.94,29.58,24,3,24,0.00
2013-3-19,55.4,44.2,32.0,34.4,25.5,13.2,84,53,20,30.13,29.92,9,1,10,0.00
2013-3-20,50.6,40.6,32.2,32.9,21.2,8.7,85,50,22,30.21,30.02,27,4,29,0.00
2013-3-21,42.9,32.9,27.8,30.5,19.4,11.4,96,61,31,30.03,29.82,13,2,14,0.00
2013-3-22,35.8,33.0,29.7,34.2,32.0,28.7,97,96,94,29.88,29.80,9,2,9,0.34
2013-3-23,41.6,37.6,33.6,39.2,35.5,32.5,97,92,85,29.88,29.62,11,1,11,0.19
2013-3-24,41.0,36.9,30.5,40.5,32.5,23.0,98,84,69,29.94,29.49,33,6,33,0.04
2013-3-25,35.4,30.5,25.3,25.9,21.8,18.0,76,70,61,30.20,29.92,23,6,24,0.00
2013-3-26,46.7,35.6,26.8,26.2,23.9,22.0,85,64,40,30.31,30.19,14,3,14,0.00
2013-3-27,57.9,42.0,25.4,33.6,27.0,21.9,93,59,32,30.29,30.11,11,2,14,0.00
2013-3-28,68.9,54.8,43.6,46.6,38.7,33.1,70,56,38,30.18,30.01,11,2,11,0.00
2013-3-29,66.7,56.0,49.0,52.3,47.8,43.5,93,75,55,30.08,29.99,15,1,15,0.03
2013-3-30,64.6,54.4,49.9,55.4,50.1,46.1,94,86,70,30.04,29.75,16,3,18,0.43
2013-3-31,68.3,57.2,47.9,51.1,47.0,39.3,98,71,46,29.85,29.72,15,2,16,0.16
2013-4-1,65.4,52.8,44.6,44.1,39.4,34.0,82,62,39,30.06,29.82,13,2,14,0.03
2013-4-2,45.4,38.9,36.0,34.2,32.0,27.0,91,77,54,30.19,30.05,10,2,10,0.10
2013-4-3,53.9,43.5,33.9,34.2,28.0,23.4,91,58,31,30.20,30.06,15,2,15,0.00
2013-4-4,56.9,48.0,40.9,33.8,30.1,25.7,72,51,34,30.08,29.91,13,2,14,0.00
2013-4-5,71.1,54.7,38.2,39.0,34.1,29.9,77,49,26,30.08,29.91,8,1,9,0.00
2013-4-6,74.4,61.5,49.4,47.1,41.9,35.5,62,50,33,29.92,29.68,21,3,21,0.00
2013-4-7,77.9,66.0,54.5,56.9,52.0,46.1,78,61,42,29.80,29.66,18,3,18,0.00
2013-4-8,76.7,66.3,58.7,61.3,57.3,53.3,88,73,58,29.71,29.63,16,3,17,0.00
2013-4-9,81.0,71.4,63.8,64.8,60.2,56.1,79,69,50,29.73,29.56,19,4,19,0.00
2013-4-10,82.3,67.7,42.2,66.6,59.3,40.3,95,76,54,29.66,29.45,21,5,21,0.51
2013-4-11,52.9,43.2,37.1,40.3,35.6,31.9,94,76,45,29.70,29.58,17,3,18,0.00
2013-4-12,61.7,48.1,37.0,35.8,33.4,31.2,84,59,34,29.91,29.69,19,2,19,0.00
2013-4-13,68.1,54.0,40.8,45.5,39.8,35.0,84,61,38,29.96,29.74,9,1,10,0.00
2013-4-14,77.3,62.9,46.5,57.7,50.4,43.0,90,67,32,29.76,29.45,14,3,14,0.00
2013-4-15,75.8,66.4,58.7,64.3,60.0,56.0,92,81,66,29.70,29.59,11,2,15,0.00
2013-4-16,85.1,71.7,58.9,69.1,62.2,56.6,96,75,46,29.83,29.68,9,1,11,0.00
2013-4-17,83.0,72.7,59.9,68.8,63.5,54.7,97,74,54,29.83,29.54,15,3,15,0.00
2013-4-18,75.8,58.5,41.3,66.8,52.7,31.7,96,82,68,29.77,29.40,26,5,26,0.99
2013-4-19,56.1,45.0,37.4,34.3,28.9,22.5,73,55,29,30.00,29.76,21,4,22,0.00
2013-4-20,66.2,51.8,34.7,42.5,35.8,31.1,92,59,29,30.12,29.99,8,0,8,0.00
2013-4-21,67.0,56.8,45.1,43.9,40.4,36.3,80,56,35,30.20,30.04,14,2,15,0.00
2013-4-22,72.3,57.9,42.0,45.2,41.1,36.6,88,57,28,30.10,29.83,14,1,14,0.00
2013-4-23,73.0,58.1,39.9,57.3,48.6,38.1,95,72,53,29.92,29.68,16,2,16,0.04
2013-4-24,55.3,45.0,37.5,38.2,34.7,29.8,95,70,39,30.18,29.90,17,2,17,0.59
2013-4-25,68.3,53.6,34.9,41.4,34.7,28.6,91,54,23,30.26,30.12,9,0,9,0.00
2013-4-26,57.2,49.6,47.3,47.5,45.3,40.5,96,86,54,30.29,30.06,10,1,12,0.62
2013-4-27,55.9,51.6,47.4,54.8,50.5,46.3,97,96,93,30.09,29.84,13,1,15,0.41
2013-4-28,66.7,56.3,50.4,54.1,50.7,47.9,96,82,57,29.90,29.77,13,1,16,0.00
2013-4-29,82.4,65.4,45.7,64.0,56.0,44.3,98,74,46,29.82,29.65,8,1,8,0.00
2013-4-30,81.7,71.1,58.9,61.2,54.4,45.7,88,60,29,29.76,29.68,12,1,12,0.00
2013-5-1,79.3,67.2,55.9,66.0,59.3,52.9,93,77,59,29.92,29.75,11,1,11,0.00
2013-5-2,64.5,55.7,41.0,62.1,53.8,39.6,96,93,89,30.02,29.88,22,2,22,0.40
2013-5-3,40.9,37.1,35.7,39.8,35.8,34.4,96,95,93,30.00,29.81,18,3,18,0.31
2013-5-4,47.6,40.9,35.1,40.4,37.2,34.0,97,87,69,29.87,29.76,8,0,8,0.02
2013-5-5,56.1,48.0,36.7,50.5,43.4,35.2,96,85,64,29.91,29.82,17,2,18,0.01
2013-5-6,68.1,59.3,52.5,56.7,52.5,49.3,94,79,59,29.88,29.81,13,2,14,0.01
2013-5-7,75.8,64.8,51.6,57.8,53.7,50.0,95,70,42,29.91,29.82,8,1,9,0.00
2013-5-8,81.5,68.5,54.5,61.5,56.0,52.5,94,68,41,29.91,29.79,6,0,7,0.00
2013-5-9,82.7,68.2,61.9,62.4,58.4,50.4,92,73,34,29.84,29.72,8,0,9,0.04
2013-5-10,73.8,62.5,56.5,61.3,57.6,52.5,97,85,57,29.89,29.71,12,1,14,0.00
2013-5-11,75.3,62.0,50.4,55.6,47.5,30.5,96,64,24,30.03,29.87,17,2,18,0.00
2013-5-12,67.3,56.8,43.0,41.2,35.0,28.2,74,46,26,30.14,30.00,15,1,15,0.00
2013-5-13,79.2,63.8,48.1,53.3,45.9,35.8,78,54,33,30.08,29.90,9,0,10,0.00
2013-5-14,91.0,75.8,61.6,59.5,53.5,50.0,70,49,26,29.90,29.79,8,0,10,0.00
2013-5-15,83.0,71.8,60.3,67.8,60.1,50.7,93,67,56,29.85,29.74,7,0,7,0.00
2013-5-16,65.4,63.0,61.1,63.1,60.5,57.6,97,92,84,29.79,29.71,7,0,8,0.19
2013-5-17,77.0,68.0,61.5,66.8,63.7,60.7,98,87,65,29.79,29.71,6,0,6,0.00
2013-5-18,82.0,71.5,62.7,74.1,68.0,61.8,98,89,75,29.82,29.69,7,1,8,0.00
2013-5-19,85.8,76.1,66.7,72.5,68.4,64.4,99,79,51,29.71,29.56,11,1,12,0.00
2013-5-20,78.5,74.1,62.6,71.7,68.3,60.5,94,82,74,29.72,29.56,13,1,15,0.27
2013-5-21,66.4,62.8,60.1,64.8,61.2,58.6,97,95,89,29.77,29.46,13,0,13,0.62
2013-5-22,79.0,67.0,55.9,64.4,58.6,54.8,98,77,47,29.77,29.60,9,0,12,0.01
2013-5-23,78.0,67.3,57.3,64.2,58.4,54.4,93,74,54,30.01,29.77,11,1,11,0.00
2013-5-24,72.7,62.9,53.8,54.5,49.5,43.9,91,64,38,30.18,30.01,13,1,13,0.00
2013-5-25,78.5,66.3,52.7,62.8,55.3,46.4,85,69,53,30.12,29.95,7,0,7,0.00
2013-5-26,84.5,72.7,59.7,69.9,63.4,56.5,89,74,56,29.99,29.84,8,0,9,0.00
2013-5-27,82.9,73.9,63.9,68.9,64.4,60.9,91,74,56,29.86,29.68,7,1,8,0.00
2013-5-28,81.7,75.7,71.4,67.9,65.3,63.9,81,71,58,29.76,29.63,9,1,10,0.00
2013-5-29,83.4,75.1,65.3,69.2,65.3,62.0,90,73,56,29.78,29.64,10,1,11,0.00
2013-5-30,80.0,73.1,64.2,70.3,67.7,61.8,96,84,67,29.76,29.60,18,1,18,0.27
2013-5-31,83.5,74.5,65.4,74.9,70.0,63.5,96,86,71,29.73,29.53,8,1,10,0.34
2013-6-1,76.5,68.8,63.8,73.2,66.0,59.2,98,91,81,29.78,29.52,10,0,12,0.91
2013-6-2,71.2,63.4,56.9,60.0,57.5,55.5,96,82,65,29.86,29.78,11,1,12,0.00
2013-6-3,74.5,65.4,56.3,60.6,57.4,54.0,94,77,54,29.91,29.77,7,0,7,0.00
2013-6-4,78.3,67.7,56.9,64.5,59.9,54.8,95,77,55,29.87,29.75,8,0,8,0.00
2013-6-5,81.0,70.6,61.6,68.6,63.8,59.3,95,80,58,29.81,29.65,13,0,17,0.00
2013-6-6,76.3,68.7,61.3,63.9,61.2,59.1,94,78,60,29.74,29.67,10,1,13,0.00
2013-6-7,76.6,67.2,56.4,59.4,56.5,53.3,92,71,47,29.78,29.71,11,1,13,0.00
2013-6-8,81.2,69.7,57.0,62.5,58.0,53.8,95,69,43,29.80,29.70,7,0,7,0.00
2013-6-9,77.1,69.6,62.8,70.7,63.8,57.0,94,82,64,29.76,29.64,8,0,8,0.07
2013-6-10,90.5,77.9,65.6,71.4,66.0,58.7,96,69,45,29.73,29.66,14,0,14,0.00
2013-6-11,94.9,81.9,67.9,76.0,68.2,62.5,91,66,36,29.82,29.73,6,0,7,0.00
2013-6-12,92.5,82.1,70.2,74.1,70.7,67.7,94,70,49,29.80,29.68,11,0,11,0.00
2013-6-13,87.8,80.1,72.1,73.3,68.9,64.0,87,70,49,29.80,29.70,12,1,12,0.00
2013-6-14,85.7,76.1,64.9,70.0,66.1,62.8,94,73,53,29.87,29.78,7,0,7,0.00
2013-6-15,87.7,77.1,65.8,70.4,66.0,61.2,88,70,50,29.86,29.75,7,0,7,0.00
2013-6-16,85.2,75.3,66.6,75.4,69.6,63.3,95,83,64,29.84,29.73,13,0,13,0.44
2013-6-17,81.0,70.7,65.4,72.8,67.6,63.9,97,90,73,29.80,29.68,18,0,20,0.93
2013-6-18,83.6,72.8,62.2,69.6,64.9,61.2,98,78,50,29.84,29.73,9,0,9,0.00
2013-6-19,88.0,75.6,62.1,70.3,64.6,59.8,93,71,45,29.88,29.79,7,0,7,0.00
2013-6-20,87.9,78.6,67.0,72.0,68.1,64.0,92,72,52,29.92,29.83,6,0,6,0.00
2013-6-21,89.3,80.8,70.1,76.4,71.8,66.2,91,75,59,29.93,29.83,7,0,7,0.00
2013-6-22,89.2,80.4,72.4,76.3,72.1,69.5,94,77,56,29.91,29.78,6,0,7,0.00
2013-6-23,89.9,80.3,69.6,75.6,71.3,67.4,94,75,55,29.85,29.75,5,0,7,0.00
2013-6-24,89.9,81.2,72.4,76.0,71.9,69.6,92,74,56,29.89,29.77,6,0,8,0.00
2013-6-25,89.0,80.8,72.6,75.7,71.8,69.5,91,75,55,29.81,29.67,6,0,7,0.00
2013-6-26,93.0,83.8,74.1,77.7,74.1,70.3,89,74,56,29.72,29.62,7,0,8,0.00
2013-6-27,98.2,86.3,75.2,80.0,75.2,70.0,92,71,44,29.75,29.65,11,1,11,0.00
2013-6-28,91.0,81.3,70.3,75.2,68.2,59.8,96,67,40,29.70,29.58,14,2,16,0.14
2013-6-29,86.7,76.8,67.3,64.0,58.6,52.6,83,56,34,29.64,29.55,19,3,21,0.00
2013-6-30,77.8,70.5,63.4,64.2,60.3,58.5,85,71,55,29.74,29.60,15,2,17,0.00
2013-7-1,80.2,70.7,61.5,62.7,59.4,55.6,91,69,48,29.82,29.73,15,2,17,0.00
2013-7-2,79.1,69.1,59.1,60.8,56.7,54.0,84,66,45,29.90,29.80,13,1,13,0.00
2013-7-3,83.3,70.6,58.7,61.4,56.9,54.2,90,65,39,29.94,29.83,7,0,7,0.00
2013-7-4,85.5,73.3,60.1,63.5,58.2,55.3,90,62,37,29.90,29.78,10,0,13,0.00
2013-7-5,86.6,74.8,60.6,68.1,61.6,57.1,91,66,38,29.88,29.77,8,0,9,0.00
2013-7-6,88.7,76.9,63.8,69.6,64.4,59.7,95,68,40,29.86,29.77,7,0,8,0.00
2013-7-7,90.8,79.6,66.3,71.8,66.4,62.6,94,67,40,29.88,29.80,5,0,6,0.00
2013-7-8,92.6,81.5,70.5,74.2,69.6,66.6,90,69,47,29.92,29.83,5,0,6,0.00
2013-7-9,94.7,85.0,74.6,74.7,70.5,68.7,85,64,44,29.90,29.76,6,0,6,0.00
2013-7-10,95.6,84.5,75.5,74.2,70.1,68.4,80,63,43,29.83,29.68,8,0,8,0.00
2013-7-11,93.2,82.1,73.3,73.6,66.7,57.1,90,63,34,29.82,29.74,10,1,10,0.00
2013-7-12,88.4,77.1,65.2,61.5,56.4,47.6,80,52,26,29.90,29.80,9,1,10,0.00
2013-7-13,86.8,75.0,61.2,62.7,59.0,56.3,85,60,36,29.89,29.78,6,0,6,0.00
2013-7-14,87.8,75.5,63.4,66.4,61.5,57.8,87,64,37,29.91,29.81,11,0,11,0.00
2013-7-15,88.1,77.7,69.9,73.1,69.4,66.0,93,77,53,30.00,29.89,11,1,11,0.00
2013-7-16,91.2,80.9,71.1,75.0,70.7,67.8,96,73,47,30.08,29.99,11,1,14,0.00
2013-7-17,94.1,82.9,71.2,73.4,68.8,64.8,93,66,39,30.12,29.98,8,0,11,0.00
2013-7-18,95.6,82.1,71.6,73.2,68.5,63.7,84,65,37,30.03,29.84,10,0,10,0.00
2013-7-19,94.5,78.2,69.5,72.0,69.1,67.2,95,77,42,29.87,29.72,19,0,24,0.02
2013-7-20,94.1,75.7,67.5,73.8,69.7,66.3,97,84,45,29.76,29.66,15,0,15,0.50
2013-7-21,84.9,73.4,69.2,76.1,71.2,68.0,98,93,70,29.76,29.66,10,0,10,0.32
2013-7-22,82.7,75.2,68.6,74.8,70.8,66.8,98,87,67,29.75,29.65,8,0,8,0.02
2013-7-23,96.0,77.3,67.4,79.9,70.4,65.7,97,81,51,29.74,29.59,18,1,18,0.62
2013-7-24,82.6,74.3,68.4,71.7,69.5,66.6,98,86,67,29.82,29.65,9,1,9,0.01
2013-7-25,82.0,73.5,63.3,66.8,63.6,59.6,92,72,54,29.92,29.82,8,0,8,0.00
2013-7-26,71.1,68.3,66.2,67.6,65.6,63.7,98,91,81,29.89,29.80,3,0,3,0.34
2013-7-27,81.3,71.9,64.8,68.6,63.6,58.2,99,78,48,29.84,29.76,9,1,10,0.00
2013-7-28,76.2,67.9,63.3,66.3,62.3,58.3,94,83,67,29.89,29.80,4,0,4,0.01
2013-7-29,83.5,74.2,64.9,72.9,67.5,62.5,95,81,66,29.95,29.85,7,1,8,0.00
2013-7-30,80.3,74.6,69.7,75.4,72.2,67.4,98,92,81,29.88,29.79,5,0,5,0.72
2013-7-31,89.3,78.6,73.1,78.8,74.1,69.8,99,87,65,29.85,29.76,11,0,12,0.69
2013-8-1,84.3,75.5,66.5,71.1,67.6,64.8,97,78,54,29.91,29.80,5,0,8,0.00
2013-8-2,85.5,76.7,67.2,74.9,70.7,65.6,96,82,65,29.83,29.71,8,0,8,0.00
2013-8-3,82.0,74.9,67.2,75.4,71.3,66.1,98,89,73,29.90,29.69,12,0,12,1.86
2013-8-4,77.8,73.2,70.4,72.9,71.2,69.0,98,94,82,29.95,29.85,9,0,9,0.16
2013-8-5,81.0,73.6,68.7,78.4,72.1,67.8,99,95,89,29.88,29.67,5,0,17,0.85
2013-8-6,82.2,75.2,69.1,78.3,73.3,68.2,98,94,85,29.79,29.64,7,0,9,0.06
2013-8-7,83.8,77.2,73.3,76.3,73.8,69.2,98,90,75,29.81,29.62,13,0,13,0.24
2013-8-8,81.8,74.7,70.6,75.1,72.8,69.9,99,94,78,29.78,29.67,9,0,9,1.13
2013-8-9,83.0,75.0,71.0,75.5,72.4,70.4,99,92,69,29.83,29.73,5,0,5,0.17
2013-8-10,77.4,72.2,69.5,72.9,70.6,68.6,99,95,84,29.93,29.81,7,0,9,0.80
2013-8-11,80.1,73.8,70.2,75.9,72.3,69.6,99,95,85,29.93,29.83,5,0,5,0.13
2013-8-12,88.7,75.6,71.6,79.1,73.2,69.6,99,93,68,29.86,29.75,13,0,14,0.04
2013-8-13,79.6,73.6,69.3,73.1,69.5,63.9,99,87,70,29.86,29.77,6,0,6,0.00
2013-8-14,75.3,68.3,61.0,64.3,59.1,53.5,92,74,49,29.97,29.86,9,1,10,0.00
2013-8-15,73.6,64.6,54.7,58.9,55.8,52.6,94,75,52,29.96,29.85,6,0,8,0.00
2013-8-16,74.2,65.1,56.4,61.7,58.4,55.0,96,80,58,29.94,29.87,8,0,8,0.00
2013-8-17,78.3,68.8,59.4,65.6,61.8,57.4,93,79,60,29.95,29.86,8,1,9,0.00
2013-8-18,80.7,70.9,61.6,68.0,64.6,60.3,97,82,58,29.96,29.86,9,0,9,0.00
2013-8-19,82.4,72.4,62.8,69.2,65.6,61.8,98,81,56,29.95,29.82,6,0,6,0.00
2013-8-20,85.0,74.3,64.8,71.2,66.2,62.3,98,78,49,29.92,29.83,3,0,4,0.00
2013-8-21,88.2,76.7,65.8,74.3,68.5,64.3,98,78,50,29.94,29.85,6,0,6,0.00
2013-8-22,89.3,79.1,68.7,76.1,70.2,66.5,96,76,52,29.93,29.81,5,0,6,0.00
2013-8-23,88.6,78.5,70.2,78.0,72.0,69.0,97,82,59,29.90,29.81,7,0,7,0.00
2013-8-24,89.4,79.1,70.5,75.0,70.9,68.5,97,78,52,29.97,29.86,6,0,7,0.00
2013-8-25,89.4,79.2,68.9,76.6,71.9,67.6,97,80,55,30.03,29.94,7,0,7,0.00
2013-8-26,89.3,79.8,70.5,75.2,72.1,69.3,97,79,57,30.02,29.90,5,0,6,0.00
2013-8-27,90.8,79.5,71.2,73.2,68.4,64.1,89,71,45,29.93,29.82,5,0,5,0.00
2013-8-28,91.3,80.7,69.0,74.3,70.0,65.7,91,71,52,29.89,29.80,6,0,6,0.00
2013-8-29,92.5,81.3,70.3,75.8,71.7,68.7,97,75,49,29.88,29.77,8,0,8,0.00
2013-8-30,93.9,82.8,72.2,78.5,72.8,69.1,91,73,52,29.80,29.67,5,0,5,0.00
2013-8-31,95.7,84.7,74.9,78.3,73.2,70.4,89,70,49,29.70,29.59,4,0,5,0.00
2013-9-1,82.9,78.8,73.0,74.7,71.9,68.6,92,80,68,29.69,29.58,7,0,7,0.01
2013-9-2,86.9,76.9,68.9,72.1,67.6,61.8,97,75,51,29.78,29.66,9,1,9,0.00
2013-9-3,84.7,73.7,62.1,66.8,61.8,57.3,91,69,42,29.87,29.77,7,0,7,0.00
2013-9-4,84.9,72.5,60.1,66.4,60.8,53.9,93,70,37,29.97,29.86,7,0,7,0.00
2013-9-5,84.7,73.2,61.4,68.4,63.0,57.0,95,72,42,30.01,29.91,8,0,8,0.00
2013-9-6,84.8,73.5,62.5,69.4,64.0,58.3,96,75,43,29.97,29.83,5,0,6,0.00
2013-9-7,90.4,77.5,65.5,71.7,66.9,63.5,96,72,45,29.87,29.74,5,0,6,0.00
2013-9-8,93.8,80.5,68.8,73.6,69.7,65.0,90,71,47,29.78,29.68,6,0,6,0.00
2013-9-9,94.5,82.3,71.5,73.5,70.2,65.7,94,70,42,29.81,29.71,6,0,7,0.00
2013-9-10,94.3,81.1,68.8,71.5,67.2,62.0,91,66,37,29.92,29.79,4,0,5,0.00
2013-9-11,93.3,79.3,70.7,75.3,69.8,67.1,91,75,46,29.94,29.84,5,0,8,0.03
2013-9-12,90.5,76.2,69.2,74.5,70.6,66.9,95,84,54,29.88,29.77,9,0,9,0.17
2013-9-13,76.4,69.1,61.6,69.7,58.4,53.4,89,69,47,29.91,29.80,9,0,10,0.00
2013-9-14,75.2,64.7,53.2,56.3,52.4,49.1,91,66,41,29.95,29.84,7,0,8,0.00
2013-9-15,83.7,69.0,52.7,63.0,55.8,48.9,89,65,42,29.91,29.84,6,0,6,0.00
2013-9-16,76.1,69.6,64.5,67.9,63.0,59.3,90,80,66,30.01,29.87,7,0,7,0.00
2013-9-17,84.2,73.0,63.6,67.7,64.4,60.9,92,76,52,29.99,29.84,8,0,8,0.00
2013-9-18,84.4,74.6,68.1,72.2,68.3,64.9,92,81,65,29.86,29.77,4,0,4,0.00
2013-9-19,90.3,75.6,69.0,74.2,69.1,66.2,92,81,55,29.83,29.71,10,0,10,0.00
2013-9-20,73.7,67.2,59.5,69.2,65.3,57.2,98,94,84,29.76,29.68,19,1,19,0.95
2013-9-21,73.7,62.4,52.3,57.1,51.9,46.0,96,72,38,29.82,29.72,13,1,13,0.00
2013-9-22,74.3,61.7,49.5,56.9,51.7,47.2,93,72,43,29.83,29.71,7,0,8,0.00
2013-9-23,76.6,63.6,50.9,59.3,55.2,49.4,97,76,53,29.79,29.67,10,1,10,0.00
2013-9-24,81.8,68.3,57.2,64.6,59.4,55.8,97,76,49,29.73,29.59,9,0,9,0.00
2013-9-25,76.8,67.2,58.3,63.7,60.0,56.8,95,79,56,29.68,29.61,9,0,10,0.00
2013-9-26,81.9,69.4,58.0,68.3,63.0,56.9,98,82,55,29.80,29.68,7,0,7,0.00
2013-9-27,82.8,72.2,62.3,69.2,64.5,61.2,98,78,58,29.86,29.76,8,0,8,0.00
2013-9-28,83.8,71.6,64.2,68.6,65.4,61.6,97,82,57,29.83,29.73,20,0,20,0.12
2013-9-29,70.3,65.9,60.2,67.6,63.6,59.2,97,92,82,29.85,29.76,8,0,9,0.09
2013-9-30,76.6,68.7,64.1,68.1,65.0,63.0,98,89,71,29.78,29.69,8,0,8,0.00
2013-10-1,84.0,74.4,67.1,71.8,68.5,65.3,97,83,60,29.81,29.72,4,0,5,0.00
2013-10-2,81.8,71.3,64.9,71.9,67.8,63.7,98,89,67,29.86,29.75,8,0,8,0.01
2013-10-3,81.7,71.9,63.4,73.3,67.7,62.5,99,87,67,29.80,29.68,5,0,6,0.00
2013-10-4,84.8,74.6,65.4,71.6,68.2,64.5,98,82,55,29.77,29.69,6,0,6,0.00
2013-10-5,73.3,63.9,49.9,71.8,62.2,48.5,98,94,83,29.81,29.68,14,1,16,0.72
2013-10-6,62.5,53.8,45.4,50.1,47.0,44.3,97,79,54,29.82,29.74,16,1,21,0.00
2013-10-7,67.3,57.4,47.3,52.3,48.3,44.9,93,73,48,29.97,29.81,13,1,13,0.00
2013-10-8,70.1,57.6,47.3,54.1,49.2,45.9,97,76,48,30.01,29.90,11,0,11,0.00
2013-10-9,72.6,58.9,46.6,56.6,51.5,44.8,95,78,53,29.97,29.88,7,0,7,0.00
2013-10-10,75.1,62.7,50.6,60.5,56.2,49.2,98,81,54,29.95,29.80,9,0,9,0.00
2013-10-11,76.8,64.9,54.6,65.2,59.3,53.5,98,83,60,29.83,29.71,8,0,8,0.00
2013-10-12,76.1,65.7,60.3,65.7,61.1,55.8,96,85,66,29.98,29.74,10,1,11,0.27
2013-10-13,72.5,63.0,55.2,55.7,50.7,46.6,85,66,44,30.15,29.98,11,1,11,0.00
2013-10-14,68.6,60.2,51.4,61.0,54.4,46.8,94,82,65,30.09,29.84,7,0,8,0.01
2013-10-15,67.0,62.5,54.1,65.9,60.7,51.1,98,94,81,29.85,29.72,12,0,12,0.38
2013-10-16,61.9,54.2,47.5,51.5,48.5,44.7,97,82,57,29.91,29.79,10,1,11,0.34
2013-10-17,62.8,53.2,45.2,49.8,46.5,43.6,96,79,52,29.87,29.79,12,0,13,0.01
2013-10-18,65.0,52.9,42.7,52.7,47.1,41.1,97,82,49,29.90,29.78,10,0,10,0.12
2013-10-19,56.4,47.6,40.7,46.0,40.7,37.2,96,78,51,29.93,29.82,13,1,14,0.13
2013-10-20,66.8,52.8,40.1,47.2,41.9,37.4,91,69,39,29.88,29.75,6,0,8,0.00
2013-10-21,59.8,51.4,43.3,51.0,47.6,42.0,96,87,68,29.91,29.79,9,1,9,0.18
2013-10-22,66.3,50.5,37.3,49.3,43.2,36.3,98,78,49,29.92,29.71,13,1,13,0.01
2013-10-23,55.6,46.9,37.8,41.8,38.3,35.0,90,73,47,30.01,29.85,14,1,14,0.00
2013-10-24,53.4,45.1,38.9,40.5,35.5,29.4,92,71,42,30.26,29.93,13,1,14,0.00
2013-10-25,53.4,42.4,31.9,33.5,30.1,26.4,87,64,37,30.37,30.09,8,0,8,0.00
2013-10-26,67.2,52.3,38.5,56.3,44.7,32.2,86,76,62,30.09,29.89,9,0,9,0.00
2013-10-27,60.9,52.6,46.7,51.0,44.1,38.8,88,73,52,29.93,29.83,6,0,6,0.00
2013-10-28,66.0,53.6,43.3,55.9,50.0,41.7,98,89,67,30.03,29.87,4,0,5,0.00
2013-10-29,64.2,58.9,50.2,63.1,58.1,49.1,98,97,96,30.03,29.85,6,0,6,0.41
2013-10-30,69.6,65.7,61.1,64.9,62.8,60.0,97,91,81,29.89,29.67,6,0,7,0.39
2013-10-31,73.9,62.8,51.5,66.4,58.6,47.5,99,88,45,29.67,29.24,17,1,19,0.27
2013-11-1,67.4,56.1,47.6,48.6,45.2,41.5,92,69,42,29.78,29.55,13,1,13,0.01
2013-11-2,56.0,48.2,42.4,44.5,40.2,37.1,90,75,52,30.06,29.77,18,2,18,0.00
2013-11-3,59.5,46.2,34.6,41.5,38.1,33.0,96,75,45,30.12,29.93,9,1,9,0.00
2013-11-4,55.4,50.8,46.0,49.9,45.1,40.0,97,81,68,30.05,29.92,7,1,7,0.08
2013-11-5,58.4,54.1,50.5,56.7,52.9,49.7,98,96,90,30.04,29.84,6,0,10,0.05
2013-11-6,59.8,49.6,38.6,59.2,47.3,34.9,98,92,80,30.15,29.75,17,3,17,0.15
2013-11-7,58.2,44.8,34.1,41.0,36.0,32.8,95,74,42,30.29,30.15,10,1,12,0.00
2013-11-8,62.5,47.9,34.0,40.2,37.8,32.7,97,71,38,30.20,29.96,8,0,8,0.00
2013-11-9,62.7,52.1,43.9,47.1,43.3,38.2,83,72,54,30.08,29.96,7,0,7,0.00
2013-11-10,64.1,53.3,44.6,47.3,41.1,35.7,85,65,36,30.22,30.08,9,0,9,0.00
2013-11-11,68.0,54.0,40.0,52.2,44.7,37.2,95,73,49,30.18,29.99,16,1,16,0.00
2013-11-12,45.3,35.2,26.1,39.1,21.7,12.9,83,60,33,30.55,30.17,19,2,20,0.00
2013-11-13,47.4,33.0,21.6,23.3,18.1,15.0,81,57,28,30.56,30.22,6,0,7,0.00
2013-11-14,56.4,42.1,26.0,35.4,23.8,18.5,82,51,25,30.22,29.91,7,1,9,0.01
2013-11-15,51.5,47.0,41.4,48.8,42.3,33.1,92,84,64,29.91,29.76,7,1,8,0.02
2013-11-16,66.5,61.7,51.0,64.1,57.4,48.8,96,86,76,29.77,29.47,17,4,20,0.39
2013-11-17,79.5,67.5,50.4,66.8,48.9,22.5,96,57,22,29.85,29.38,22,3,22,0.01
2013-11-18,64.5,51.0,42.1,39.8,30.2,21.0,75,48,19,30.11,29.85,12,1,12,0.00
2013-11-19,55.7,44.9,36.7,33.3,29.4,25.1,73,56,35,30.14,29.98,10,1,10,0.00
2013-11-20,60.7,47.1,36.6,35.4,30.7,25.2,76,55,26,30.00,29.80,10,2,10,0.00
2013-11-21,53.3,50.4,46.0,52.8,47.2,35.1,98,90,54,30.02,29.86,8,0,8,0.79
2013-11-22,53.0,39.9,33.3,52.5,37.6,30.8,98,91,85,30.33,30.01,16,4,18,0.01
2013-11-23,40.4,33.7,23.4,31.7,22.6,10.2,94,66,37,30.51,30.32,13,3,15,0.04
2013-11-24,28.8,24.0,17.0,14.5,12.3,10.3,78,61,49,30.56,30.27,8,1,9,0.00
2013-11-25,32.0,29.9,27.8,30.2,24.0,14.0,94,79,54,30.28,30.04,8,1,9,0.05
2013-11-26,47.6,35.6,28.2,32.9,27.8,17.9,94,75,52,30.12,29.90,23,4,25,0.01
2013-11-27,37.2,26.9,19.6,17.8,14.2,11.7,76,60,37,30.26,30.12,16,3,19,0.00
2013-11-28,54.7,36.8,21.7,30.4,22.6,14.9,78,59,32,30.30,30.15,9,1,9,0.00
2013-11-29,54.2,40.8,30.2,33.5,29.5,24.5,81,65,43,30.38,30.21,8,1,8,0.00
2013-11-30,58.2,49.0,31.2,43.6,39.5,27.9,91,71,53,30.20,29.97,13,2,13,0.00
2013-12-1,58.7,50.4,43.0,50.3,45.4,40.2,94,83,71,30.00,29.71,5,0,5,0.00
2013-12-2,62.7,49.9,42.3,50.1,46.0,41.0,98,87,59,29.71,29.49,6,0,7,0.00
2013-12-3,63.2,53.8,46.1,54.6,51.2,44.8,98,91,71,29.53,29.40,11,2,11,0.00
2013-12-4,68.0,55.9,42.9,57.2,50.4,38.4,98,83,56,29.71,29.42,17,3,17,0.00
2013-12-5,42.8,29.7,22.6,38.2,26.2,20.4,93,87,72,30.10,29.71,20,4,20,0.01
2013-12-6,22.6,20.0,17.8,20.4,17.8,14.1,93,91,85,30.41,30.06,11,2,14,0.00
2013-12-7,23.4,16.6,6.2,16.0,11.1,2.7,87,79,67,30.54,30.23,10,1,10,0.06
2013-12-8,27.3,22.4,18.0,26.2,20.2,12.5,96,91,75,30.23,29.90,8,0,8,0.00
2013-12-9,33.5,27.5,23.3,27.3,22.2,17.0,95,80,68,30.18,30.02,13,2,14,0.07
2013-12-10,35.3,25.0,16.5,24.5,20.1,13.6,95,82,61,30.28,30.14,12,2,13,0.14
2013-12-11,39.3,26.6,17.0,28.3,20.6,12.7,97,79,58,30.49,30.17,11,1,14,0.23
2013-12-12,39.1,25.6,13.0,23.7,16.6,9.0,89,70,45,30.49,30.17,7,1,7,0.22
2013-12-13,35.0,30.6,21.8,31.7,27.1,17.8,97,87,68,30.17,29.73,7,1,7,0.42
2013-12-14,36.0,32.4,28.7,33.9,30.3,25.3,97,92,87,30.06,29.68,23,4,23,0.42
2013-12-15,44.0,34.1,22.4,31.8,27.2,20.5,94,77,57,30.10,29.96,14,2,14,0.33
2013-12-16,60.0,47.6,39.6,38.8,33.4,30.6,71,58,39,29.96,29.87,13,2,13,0.50
2013-12-17,55.9,43.0,33.9,39.3,32.8,28.7,90,69,40,30.15,29.94,17,1,19,0.00
2013-12-18,57.6,43.7,28.3,41.2,33.2,25.6,90,68,44,30.13,29.83,10,2,11,0.00
2013-12-19,58.2,53.0,44.3,53.7,46.7,38.8,85,79,70,29.83,29.60,15,3,15,0.00
2013-12-20,67.8,55.3,39.6,60.9,51.8,38.3,95,88,75,29.67,29.57,14,2,15,0.06
2013-12-21,42.2,38.8,37.2,41.7,38.0,36.2,98,97,95,29.58,29.33,19,2,19,0.65
2013-12-22,39.4,33.6,28.5,38.9,31.1,22.8,98,90,79,30.16,29.51,17,3,17,0.01
2013-12-23,34.6,27.0,19.1,24.7,20.5,16.0,90,77,57,30.42,30.16,14,3,15,0.01
2013-12-24,32.5,22.2,13.1,19.0,15.6,10.7,91,76,55,30.47,30.22,12,2,12,0.00
2013-12-25,46.6,33.3,21.9,34.6,27.6,18.2,92,80,62,30.23,30.13,13,1,13,0.00
2013-12-26,48.9,35.9,24.2,35.3,28.5,22.7,97,77,43,30.27,30.16,8,1,8,0.00
2013-12-27,56.8,40.4,26.5,34.7,28.8,23.9,92,66,34,30.28,30.15,8,1,8,0.00
2013-12-28,50.1,40.6,29.6,34.7,31.2,26.0,89,70,52,30.16,29.78,9,1,9,0.00
2013-12-29,43.7,34.1,22.8,37.3,27.8,16.3,83,77,73,30.10,29.76,18,3,19,0.00
2013-12-30,35.1,25.1,17.0,21.8,16.1,11.1,82,69,48,30.19,30.08,7,1,7,0.00
2013-12-31,53.9,36.5,21.3,28.5,23.8,18.3,88,63,30,30.26,30.05,11,1,11,0.00
2014-1-1,53.9,39.8,29.3,36.0,29.8,24.6,87,69,42,30.06,29.76,21,2,21,0.00
2014-1-2,36.6,22.5,14.2,27.0,13.7,6.8,82,69,51,30.34,29.83,22,6,24,0.00